ADDS TAF Board (Experimental) INFO

IDs: Format: Expanded Condensed

Updated at: 2259 UTC 27 Jan 2015

KPHX - Phoenix/Sky Harbor, AZ, US

Issued at 2113 UTC 27 Jan 2015
Time2251Z27/23Z28/00Z28/01Z28/02Z28/03Z28/04Z28/05Z28/06Z28/07Z28/08Z28/09Z28/10Z28/11Z
TypeOBSPRVLPRVLPRVLPRVLPRVLPRVLPRVLPRVLPRVLPRVLPRVLPRVLPRVL
VIS10>6>6>6>6>6>6>6>6>6>6>6>6>6
CIG250------------250250250250250250250
CoverBKNSCTSCTSCTSCTSCTSCTBKNBKNBKNBKNBKNBKNBKN
FltCat--VFRVFRVFRVFRVFRVFRVFRVFRVFRVFRVFRVFRVFR
WX----------------------------
WDirVRBVRBVRBVRBVRBVRBVRB100100100100100100100
WSpd05555553333333
WGst----------------------------
R07/25
XWndVRBVRBVRBVRBVRBVRBVRB-1-1-1-1-1-1-1
HWndVRBVRBVRBVRBVRBVRBVRB3333333
R08/26
XWndVRBVRBVRBVRBVRBVRBVRB-1-1-1-1-1-1-1
HWndVRBVRBVRBVRBVRBVRBVRB3333333
Raw TAF
KPHX 272113Z 2721/2818 09005KT P6SM FEW050 SCT070
  FM272300 VRB05KT P6SM SCT070 SCT250
  FM280500 10003KT P6SM FEW070 BKN250
  FM281100 10003KT P6SM BKN250


Raw METAR
KPHX 272251Z 00000KT 10SM FEW055 SCT090 BKN250 22/09 A3013 RMK AO2 SLP194 T02220089
KPHX 272151Z 19004KT 10SM FEW040 FEW055 BKN085 BKN250 23/08 A3015 RMK AO2 SLP199 T02280083

TAF Board Legend

Hazard VFR MVFR IFR LIFR
Visibility (sm) >5 3≤X≤5 1≤X<3 <1
Ceiling (100 ft) >30 10≤X≤30 5≤X<10 <5
Wind Speed (kt) <10 10≤X<20 20≤X<30 ≥30
Wind Gust (kt) <15 15≤X<25 25≤X<35 ≥35
Weather No Wx Reported VCTS,-TS,-FZRA TS,FZRA +TS,+FZRA


Page loaded:  22:59 UTC  |   02:59 PM Pacific  |   03:59 PM Mountain  |   04:59 PM Central  |   05:59 PM Eastern

 

ADVISORIES

FORECASTS

FORECASTS

OBSERVATIONS

USER TOOLS

ABOUT US